sensor_id;sensor_type;location;lat;lon;timestamp;temperature;humidity
78184;DHT22;67442;44.570;18.610;2023-12-20T00:01:24;-1.10;99.90
78184;DHT22;67442;44.570;18.610;2023-12-20T00:03:56;-1.10;99.90
78184;DHT22;67442;44.570;18.610;2023-12-20T00:06:28;-1.30;99.90
78184;DHT22;67442;44.570;18.610;2023-12-20T00:08:59;-1.30;99.90
78184;DHT22;67442;44.570;18.610;2023-12-20T00:11:26;-1.40;99.90
78184;DHT22;67442;44.570;18.610;2023-12-20T00:13:57;-1.50;99.90
78184;DHT22;67442;44.570;18.610;2023-12-20T00:16:25;-1.60;99.90
78184;DHT22;67442;44.570;18.610;2023-12-20T00:18:52;-1.70;99.90
78184;DHT22;67442;44.570;18.610;2023-12-20T00:21:20;-1.50;99.90
78184;DHT22;67442;44.570;18.610;2023-12-20T00:23:46;-1.30;99.90
78184;DHT22;67442;44.570;18.610;2023-12-20T00:26:15;-1.40;99.90
78184;DHT22;67442;44.570;18.610;2023-12-20T00:28:42;-1.70;99.90
78184;DHT22;67442;44.570;18.610;2023-12-20T00:31:10;-1.40;99.90
78184;DHT22;67442;44.570;18.610;2023-12-20T00:33:41;-1.70;99.90
78184;DHT22;67442;44.570;18.610;2023-12-20T00:36:12;-1.80;99.90
78184;DHT22;67442;44.570;18.610;2023-12-20T00:38:40;-1.90;99.90
78184;DHT22;67442;44.570;18.610;2023-12-20T00:41:07;-1.60;99.90
78184;DHT22;67442;44.570;18.610;2023-12-20T00:43:38;-1.40;99.90
78184;DHT22;67442;44.570;18.610;2023-12-20T00:46:10;-1.40;99.90
78184;DHT22;67442;44.570;18.610;2023-12-20T00:48:37;-1.40;99.90
78184;DHT22;67442;44.570;18.610;2023-12-20T00:51:05;-1.40;99.90
78184;DHT22;67442;44.570;18.610;2023-12-20T00:53:36;-1.60;99.90
78184;DHT22;67442;44.570;18.610;2023-12-20T00:56:04;-1.80;99.90
78184;DHT22;67442;44.570;18.610;2023-12-20T00:58:31;-1.80;99.90
78184;DHT22;67442;44.570;18.610;2023-12-20T01:01:00;-1.80;99.90
78184;DHT22;67442;44.570;18.610;2023-12-20T01:03:31;-1.60;99.90
78184;DHT22;67442;44.570;18.610;2023-12-20T01:06:02;-1.90;99.90
78184;DHT22;67442;44.570;18.610;2023-12-20T01:08:31;-2.00;99.90
78184;DHT22;67442;44.570;18.610;2023-12-20T01:11:06;-2.20;99.90
78184;DHT22;67442;44.570;18.610;2023-12-20T01:13:33;-2.10;99.90
78184;DHT22;67442;44.570;18.610;2023-12-20T01:16:00;-2.20;99.90
78184;DHT22;67442;44.570;18.610;2023-12-20T01:18:28;-2.10;99.90
78184;DHT22;67442;44.570;18.610;2023-12-20T01:21:00;-1.90;99.90
78184;DHT22;67442;44.570;18.610;2023-12-20T01:23:28;-1.80;99.90
78184;DHT22;67442;44.570;18.610;2023-12-20T01:25:59;-2.00;99.90
78184;DHT22;67442;44.570;18.610;2023-12-20T01:28:27;-2.00;99.90
78184;DHT22;67442;44.570;18.610;2023-12-20T01:30:54;-2.20;99.90
78184;DHT22;67442;44.570;18.610;2023-12-20T01:33:25;-2.20;99.90
78184;DHT22;67442;44.570;18.610;2023-12-20T01:35:56;-2.30;99.90
78184;DHT22;67442;44.570;18.610;2023-12-20T01:38:24;-2.40;99.90
78184;DHT22;67442;44.570;18.610;2023-12-20T01:40:51;-2.30;99.90
78184;DHT22;67442;44.570;18.610;2023-12-20T01:43:18;-2.00;99.90
78184;DHT22;67442;44.570;18.610;2023-12-20T01:45:49;-1.70;99.90
78184;DHT22;67442;44.570;18.610;2023-12-20T01:48:17;-1.50;99.90
78184;DHT22;67442;44.570;18.610;2023-12-20T01:50:48;-1.70;99.90
78184;DHT22;67442;44.570;18.610;2023-12-20T01:53:15;-1.70;99.90
78184;DHT22;67442;44.570;18.610;2023-12-20T01:55:44;-1.80;99.90
78184;DHT22;67442;44.570;18.610;2023-12-20T01:58:11;-1.70;99.90
78184;DHT22;67442;44.570;18.610;2023-12-20T02:00:38;-2.00;99.90
78184;DHT22;67442;44.570;18.610;2023-12-20T02:03:05;-2.10;99.90
78184;DHT22;67442;44.570;18.610;2023-12-20T02:05:37;-2.20;99.90
78184;DHT22;67442;44.570;18.610;2023-12-20T02:08:08;-2.30;99.90
78184;DHT22;67442;44.570;18.610;2023-12-20T02:10:36;-2.30;99.90
78184;DHT22;67442;44.570;18.610;2023-12-20T02:13:03;-2.30;99.90
78184;DHT22;67442;44.570;18.610;2023-12-20T02:15:31;-2.30;99.90
78184;DHT22;67442;44.570;18.610;2023-12-20T02:18:02;-2.10;99.90
78184;DHT22;67442;44.570;18.610;2023-12-20T02:20:29;-2.30;99.90
78184;DHT22;67442;44.570;18.610;2023-12-20T02:23:00;-2.40;99.90
78184;DHT22;67442;44.570;18.610;2023-12-20T02:25:31;-2.50;99.90
78184;DHT22;67442;44.570;18.610;2023-12-20T02:27:59;-2.40;99.90
78184;DHT22;67442;44.570;18.610;2023-12-20T02:30:26;-2.40;99.90
78184;DHT22;67442;44.570;18.610;2023-12-20T02:32:59;-2.30;99.90
78184;DHT22;67442;44.570;18.610;2023-12-20T02:35:26;-2.10;99.90
78184;DHT22;67442;44.570;18.610;2023-12-20T02:37:54;-1.90;99.90
78184;DHT22;67442;44.570;18.610;2023-12-20T02:40:21;-1.80;99.90
78184;DHT22;67442;44.570;18.610;2023-12-20T02:42:49;-1.80;99.90
78184;DHT22;67442;44.570;18.610;2023-12-20T02:45:16;-1.80;99.90
78184;DHT22;67442;44.570;18.610;2023-12-20T02:47:44;-1.90;99.90
78184;DHT22;67442;44.570;18.610;2023-12-20T02:50:12;-2.00;99.90
78184;DHT22;67442;44.570;18.610;2023-12-20T02:52:39;-1.70;99.90
78184;DHT22;67442;44.570;18.610;2023-12-20T02:55:06;-1.80;99.90
78184;DHT22;67442;44.570;18.610;2023-12-20T02:57:37;-1.70;99.90
78184;DHT22;67442;44.570;18.610;2023-12-20T03:00:11;-2.00;99.90
78184;DHT22;67442;44.570;18.610;2023-12-20T03:02:39;-2.20;99.90
78184;DHT22;67442;44.570;18.610;2023-12-20T03:05:06;-2.30;99.90
78184;DHT22;67442;44.570;18.610;2023-12-20T03:07:36;-2.40;99.90
78184;DHT22;67442;44.570;18.610;2023-12-20T03:10:05;-2.60;99.90
78184;DHT22;67442;44.570;18.610;2023-12-20T03:12:34;-2.80;99.90
78184;DHT22;67442;44.570;18.610;2023-12-20T03:15:02;-2.60;99.90
78184;DHT22;67442;44.570;18.610;2023-12-20T03:17:29;-2.60;99.90
78184;DHT22;67442;44.570;18.610;2023-12-20T03:20:00;-2.60;99.90
78184;DHT22;67442;44.570;18.610;2023-12-20T03:22:27;-2.40;99.90
78184;DHT22;67442;44.570;18.610;2023-12-20T03:24:55;-2.50;99.90
78184;DHT22;67442;44.570;18.610;2023-12-20T03:27:22;-2.60;99.90
78184;DHT22;67442;44.570;18.610;2023-12-20T03:29:50;-2.70;99.90
78184;DHT22;67442;44.570;18.610;2023-12-20T03:32:17;-2.70;99.90
78184;DHT22;67442;44.570;18.610;2023-12-20T03:34:45;-2.80;99.90
78184;DHT22;67442;44.570;18.610;2023-12-20T03:37:13;-2.60;99.90
78184;DHT22;67442;44.570;18.610;2023-12-20T03:39:40;-2.60;99.90
78184;DHT22;67442;44.570;18.610;2023-12-20T03:42:08;-2.80;99.90
78184;DHT22;67442;44.570;18.610;2023-12-20T03:44:38;-2.70;99.90
78184;DHT22;67442;44.570;18.610;2023-12-20T03:47:09;-2.80;99.90
78184;DHT22;67442;44.570;18.610;2023-12-20T03:49:40;-2.60;99.90
78184;DHT22;67442;44.570;18.610;2023-12-20T03:52:12;-2.90;99.90
78184;DHT22;67442;44.570;18.610;2023-12-20T03:54:40;-3.10;99.90
78184;DHT22;67442;44.570;18.610;2023-12-20T03:57:11;-3.20;99.90
78184;DHT22;67442;44.570;18.610;2023-12-20T03:59:42;-3.10;99.90
78184;DHT22;67442;44.570;18.610;2023-12-20T04:02:10;-3.00;99.90
78184;DHT22;67442;44.570;18.610;2023-12-20T04:04:37;-2.70;99.90
78184;DHT22;67442;44.570;18.610;2023-12-20T04:07:05;-2.80;99.90
78184;DHT22;67442;44.570;18.610;2023-12-20T04:09:33;-2.80;99.90
78184;DHT22;67442;44.570;18.610;2023-12-20T04:12:00;-3.00;99.90
78184;DHT22;67442;44.570;18.610;2023-12-20T04:14:31;-3.20;99.90
78184;DHT22;67442;44.570;18.610;2023-12-20T04:16:59;-2.90;99.90
78184;DHT22;67442;44.570;18.610;2023-12-20T04:19:30;-2.70;99.90
78184;DHT22;67442;44.570;18.610;2023-12-20T04:21:58;-2.60;99.90
78184;DHT22;67442;44.570;18.610;2023-12-20T04:24:25;-2.90;99.90
78184;DHT22;67442;44.570;18.610;2023-12-20T04:26:53;-2.70;99.90
78184;DHT22;67442;44.570;18.610;2023-12-20T04:29:21;-2.80;99.90
78184;DHT22;67442;44.570;18.610;2023-12-20T04:31:48;-2.50;99.90
78184;DHT22;67442;44.570;18.610;2023-12-20T04:34:18;-2.50;99.90
78184;DHT22;67442;44.570;18.610;2023-12-20T04:36:46;-2.80;99.90
78184;DHT22;67442;44.570;18.610;2023-12-20T04:39:13;-2.90;99.90
78184;DHT22;67442;44.570;18.610;2023-12-20T04:41:41;-3.00;99.90
78184;DHT22;67442;44.570;18.610;2023-12-20T04:44:08;-3.00;99.90
78184;DHT22;67442;44.570;18.610;2023-12-20T04:46:36;-3.10;99.90
78184;DHT22;67442;44.570;18.610;2023-12-20T04:49:03;-3.00;99.90
78184;DHT22;67442;44.570;18.610;2023-12-20T04:51:33;-3.10;99.90
78184;DHT22;67442;44.570;18.610;2023-12-20T04:54:01;-3.30;99.90
78184;DHT22;67442;44.570;18.610;2023-12-20T04:56:31;-3.00;99.90
78184;DHT22;67442;44.570;18.610;2023-12-20T04:58:59;-3.20;99.90
78184;DHT22;67442;44.570;18.610;2023-12-20T05:01:27;-3.00;99.90
78184;DHT22;67442;44.570;18.610;2023-12-20T05:03:53;-3.20;99.90
78184;DHT22;67442;44.570;18.610;2023-12-20T05:06:22;-3.10;99.90
78184;DHT22;67442;44.570;18.610;2023-12-20T05:08:50;-3.30;99.90
78184;DHT22;67442;44.570;18.610;2023-12-20T05:11:21;-3.00;99.90
78184;DHT22;67442;44.570;18.610;2023-12-20T05:13:52;-2.80;99.90
78184;DHT22;67442;44.570;18.610;2023-12-20T05:16:20;-2.50;99.90
78184;DHT22;67442;44.570;18.610;2023-12-20T05:18:51;-2.70;99.90
78184;DHT22;67442;44.570;18.610;2023-12-20T05:21:19;-2.90;99.90
78184;DHT22;67442;44.570;18.610;2023-12-20T05:23:50;-3.00;99.90
78184;DHT22;67442;44.570;18.610;2023-12-20T05:26:18;-3.10;99.90
78184;DHT22;67442;44.570;18.610;2023-12-20T05:28:49;-2.80;99.90
78184;DHT22;67442;44.570;18.610;2023-12-20T05:31:17;-3.00;99.90
78184;DHT22;67442;44.570;18.610;2023-12-20T05:33:48;-2.90;99.90
78184;DHT22;67442;44.570;18.610;2023-12-20T05:36:16;-2.90;99.90
78184;DHT22;67442;44.570;18.610;2023-12-20T05:38:45;-3.10;99.90
78184;DHT22;67442;44.570;18.610;2023-12-20T05:41:12;-3.10;99.90
78184;DHT22;67442;44.570;18.610;2023-12-20T05:43:40;-3.20;99.90
78184;DHT22;67442;44.570;18.610;2023-12-20T05:46:09;-3.00;99.90
78184;DHT22;67442;44.570;18.610;2023-12-20T05:48:41;-3.10;99.90
78184;DHT22;67442;44.570;18.610;2023-12-20T05:51:11;-3.30;99.90
78184;DHT22;67442;44.570;18.610;2023-12-20T05:53:39;-3.30;99.90
78184;DHT22;67442;44.570;18.610;2023-12-20T05:56:06;-3.30;99.90
78184;DHT22;67442;44.570;18.610;2023-12-20T05:58:34;-3.30;99.90
78184;DHT22;67442;44.570;18.610;2023-12-20T06:01:04;-3.50;99.90
78184;DHT22;67442;44.570;18.610;2023-12-20T06:03:32;-3.50;99.90
78184;DHT22;67442;44.570;18.610;2023-12-20T06:06:04;-3.30;99.90
78184;DHT22;67442;44.570;18.610;2023-12-20T06:08:31;-3.20;99.90
78184;DHT22;67442;44.570;18.610;2023-12-20T06:10:59;-3.20;99.90
78184;DHT22;67442;44.570;18.610;2023-12-20T06:13:30;-3.00;99.90
78184;DHT22;67442;44.570;18.610;2023-12-20T06:15:57;-3.00;99.90
78184;DHT22;67442;44.570;18.610;2023-12-20T06:18:25;-3.10;99.90
78184;DHT22;67442;44.570;18.610;2023-12-20T06:20:53;-3.40;99.90
78184;DHT22;67442;44.570;18.610;2023-12-20T06:23:24;-3.50;99.90
78184;DHT22;67442;44.570;18.610;2023-12-20T06:25:50;-3.60;99.90
78184;DHT22;67442;44.570;18.610;2023-12-20T06:28:18;-3.50;99.90
78184;DHT22;67442;44.570;18.610;2023-12-20T06:30:45;-3.50;99.90
78184;DHT22;67442;44.570;18.610;2023-12-20T06:33:15;-3.60;99.90
78184;DHT22;67442;44.570;18.610;2023-12-20T06:35:43;-3.40;99.90
78184;DHT22;67442;44.570;18.610;2023-12-20T06:38:14;-3.10;99.90
78184;DHT22;67442;44.570;18.610;2023-12-20T06:40:45;-2.80;99.90
78184;DHT22;67442;44.570;18.610;2023-12-20T06:43:13;-2.60;99.90
78184;DHT22;67442;44.570;18.610;2023-12-20T06:45:40;-2.50;99.90
78184;DHT22;67442;44.570;18.610;2023-12-20T06:48:06;-2.40;99.90
78184;DHT22;67442;44.570;18.610;2023-12-20T06:50:34;-2.50;99.90
78184;DHT22;67442;44.570;18.610;2023-12-20T06:53:09;-2.60;99.90
78184;DHT22;67442;44.570;18.610;2023-12-20T06:55:39;-2.70;99.90
78184;DHT22;67442;44.570;18.610;2023-12-20T06:58:07;-2.80;99.90
78184;DHT22;67442;44.570;18.610;2023-12-20T07:00:35;-2.80;99.90
78184;DHT22;67442;44.570;18.610;2023-12-20T07:03:07;-2.90;99.90
78184;DHT22;67442;44.570;18.610;2023-12-20T07:05:34;-2.80;99.90
78184;DHT22;67442;44.570;18.610;2023-12-20T07:08:02;-2.80;99.90
78184;DHT22;67442;44.570;18.610;2023-12-20T07:10:30;-2.80;99.90
78184;DHT22;67442;44.570;18.610;2023-12-20T07:12:58;-2.70;99.90
78184;DHT22;67442;44.570;18.610;2023-12-20T07:15:25;-2.60;99.90
78184;DHT22;67442;44.570;18.610;2023-12-20T07:17:53;-2.50;99.90
78184;DHT22;67442;44.570;18.610;2023-12-20T07:20:21;-2.60;99.90
78184;DHT22;67442;44.570;18.610;2023-12-20T07:22:49;-2.40;99.90
78184;DHT22;67442;44.570;18.610;2023-12-20T07:25:17;-2.30;99.90
78184;DHT22;67442;44.570;18.610;2023-12-20T07:27:44;-2.10;99.90
78184;DHT22;67442;44.570;18.610;2023-12-20T07:30:13;-2.00;99.90
78184;DHT22;67442;44.570;18.610;2023-12-20T07:32:41;-2.00;99.90
78184;DHT22;67442;44.570;18.610;2023-12-20T07:35:09;-1.80;99.90
78184;DHT22;67442;44.570;18.610;2023-12-20T07:37:41;-1.70;99.90
78184;DHT22;67442;44.570;18.610;2023-12-20T07:40:12;-1.40;99.90
78184;DHT22;67442;44.570;18.610;2023-12-20T07:42:38;-1.30;99.90
78184;DHT22;67442;44.570;18.610;2023-12-20T07:45:07;-1.10;99.90
78184;DHT22;67442;44.570;18.610;2023-12-20T07:47:37;-0.90;99.90
78184;DHT22;67442;44.570;18.610;2023-12-20T07:50:04;-1.10;99.90
78184;DHT22;67442;44.570;18.610;2023-12-20T07:52:33;-0.90;99.90
78184;DHT22;67442;44.570;18.610;2023-12-20T07:55:00;-0.80;99.90
78184;DHT22;67442;44.570;18.610;2023-12-20T07:57:31;-0.70;99.90
78184;DHT22;67442;44.570;18.610;2023-12-20T07:59:58;-0.70;99.90
78184;DHT22;67442;44.570;18.610;2023-12-20T08:02:26;-0.70;99.90
78184;DHT22;67442;44.570;18.610;2023-12-20T08:04:53;-0.40;99.90
78184;DHT22;67442;44.570;18.610;2023-12-20T08:07:21;-0.10;99.90
78184;DHT22;67442;44.570;18.610;2023-12-20T08:09:48;0.10;99.90
78184;DHT22;67442;44.570;18.610;2023-12-20T08:12:16;0.30;99.90
78184;DHT22;67442;44.570;18.610;2023-12-20T08:14:44;0.40;99.90
78184;DHT22;67442;44.570;18.610;2023-12-20T08:17:11;0.30;99.90
78184;DHT22;67442;44.570;18.610;2023-12-20T08:19:45;0.30;99.90
78184;DHT22;67442;44.570;18.610;2023-12-20T08:22:12;0.30;99.90
78184;DHT22;67442;44.570;18.610;2023-12-20T08:24:39;0.50;99.90
78184;DHT22;67442;44.570;18.610;2023-12-20T08:27:06;0.60;99.90
78184;DHT22;67442;44.570;18.610;2023-12-20T08:29:36;0.60;99.90
78184;DHT22;67442;44.570;18.610;2023-12-20T08:32:06;0.90;99.90
78184;DHT22;67442;44.570;18.610;2023-12-20T08:34:38;0.90;99.90
78184;DHT22;67442;44.570;18.610;2023-12-20T08:37:09;1.30;99.90
78184;DHT22;67442;44.570;18.610;2023-12-20T08:39:37;1.60;99.90
78184;DHT22;67442;44.570;18.610;2023-12-20T08:42:08;1.70;99.90
78184;DHT22;67442;44.570;18.610;2023-12-20T08:44:39;1.90;99.90
78184;DHT22;67442;44.570;18.610;2023-12-20T08:47:10;2.00;99.90
78184;DHT22;67442;44.570;18.610;2023-12-20T08:49:40;2.20;99.90
78184;DHT22;67442;44.570;18.610;2023-12-20T08:52:12;2.30;99.90
78184;DHT22;67442;44.570;18.610;2023-12-20T08:54:40;2.40;99.90
78184;DHT22;67442;44.570;18.610;2023-12-20T08:57:07;2.50;99.90
78184;DHT22;67442;44.570;18.610;2023-12-20T08:59:35;2.70;99.90
78184;DHT22;67442;44.570;18.610;2023-12-20T09:02:03;3.10;99.90
78184;DHT22;67442;44.570;18.610;2023-12-20T09:04:30;3.10;99.90
78184;DHT22;67442;44.570;18.610;2023-12-20T09:06:59;3.10;99.90
78184;DHT22;67442;44.570;18.610;2023-12-20T09:09:28;3.10;99.90
78184;DHT22;67442;44.570;18.610;2023-12-20T09:11:55;3.30;99.90
78184;DHT22;67442;44.570;18.610;2023-12-20T09:14:23;3.40;99.90
78184;DHT22;67442;44.570;18.610;2023-12-20T09:16:52;3.60;99.90
78184;DHT22;67442;44.570;18.610;2023-12-20T09:19:22;3.70;99.90
78184;DHT22;67442;44.570;18.610;2023-12-20T09:21:50;3.80;99.90
78184;DHT22;67442;44.570;18.610;2023-12-20T09:24:21;4.00;99.90
78184;DHT22;67442;44.570;18.610;2023-12-20T09:26:48;4.50;99.90
78184;DHT22;67442;44.570;18.610;2023-12-20T09:29:19;4.70;99.90
78184;DHT22;67442;44.570;18.610;2023-12-20T09:31:51;4.90;99.90
78184;DHT22;67442;44.570;18.610;2023-12-20T09:34:18;5.20;99.90
78184;DHT22;67442;44.570;18.610;2023-12-20T09:36:50;5.50;99.90
78184;DHT22;67442;44.570;18.610;2023-12-20T09:39:18;5.90;99.90
78184;DHT22;67442;44.570;18.610;2023-12-20T09:42:00;6.30;99.90
78184;DHT22;67442;44.570;18.610;2023-12-20T09:44:28;6.60;99.90
78184;DHT22;67442;44.570;18.610;2023-12-20T09:46:57;6.80;99.90
78184;DHT22;67442;44.570;18.610;2023-12-20T09:49:25;6.90;99.90
78184;DHT22;67442;44.570;18.610;2023-12-20T09:51:54;7.40;99.90
78184;DHT22;67442;44.570;18.610;2023-12-20T09:54:23;7.50;99.90
78184;DHT22;67442;44.570;18.610;2023-12-20T09:56:54;7.70;99.90
78184;DHT22;67442;44.570;18.610;2023-12-20T09:59:21;7.90;99.90
78184;DHT22;67442;44.570;18.610;2023-12-20T10:01:49;8.00;99.80
78184;DHT22;67442;44.570;18.610;2023-12-20T10:04:21;8.40;99.40
78184;DHT22;67442;44.570;18.610;2023-12-20T10:06:48;9.00;97.20
78184;DHT22;67442;44.570;18.610;2023-12-20T10:09:16;9.40;97.00
78184;DHT22;67442;44.570;18.610;2023-12-20T10:11:43;9.60;95.50
78184;DHT22;67442;44.570;18.610;2023-12-20T10:14:11;9.80;93.80
78184;DHT22;67442;44.570;18.610;2023-12-20T10:16:43;10.00;93.60
78184;DHT22;67442;44.570;18.610;2023-12-20T10:19:16;10.30;94.00
78184;DHT22;67442;44.570;18.610;2023-12-20T10:21:44;10.70;93.10
78184;DHT22;67442;44.570;18.610;2023-12-20T10:24:17;10.80;92.50
78184;DHT22;67442;44.570;18.610;2023-12-20T10:26:48;11.10;92.20
78184;DHT22;67442;44.570;18.610;2023-12-20T10:29:35;11.50;90.80
78184;DHT22;67442;44.570;18.610;2023-12-20T10:32:22;11.70;89.30
78184;DHT22;67442;44.570;18.610;2023-12-20T10:34:50;12.00;87.20
78184;DHT22;67442;44.570;18.610;2023-12-20T10:37:17;12.20;85.50
78184;DHT22;67442;44.570;18.610;2023-12-20T10:39:52;12.30;86.00
78184;DHT22;67442;44.570;18.610;2023-12-20T10:42:24;12.40;85.00
78184;DHT22;67442;44.570;18.610;2023-12-20T10:44:58;12.50;82.50
78184;DHT22;67442;44.570;18.610;2023-12-20T10:47:25;12.60;83.10
78184;DHT22;67442;44.570;18.610;2023-12-20T10:49:56;12.60;83.30
78184;DHT22;67442;44.570;18.610;2023-12-20T10:52:28;12.60;84.40
78184;DHT22;67442;44.570;18.610;2023-12-20T10:54:55;12.80;80.90
78184;DHT22;67442;44.570;18.610;2023-12-20T10:57:27;12.70;81.30
78184;DHT22;67442;44.570;18.610;2023-12-20T10:59:54;13.00;80.10
78184;DHT22;67442;44.570;18.610;2023-12-20T11:02:23;13.20;78.00
78184;DHT22;67442;44.570;18.610;2023-12-20T11:08:06;13.50;73.10
78184;DHT22;67442;44.570;18.610;2023-12-20T11:13:40;13.70;72.20
78184;DHT22;67442;44.570;18.610;2023-12-20T11:16:14;13.80;71.20
78184;DHT22;67442;44.570;18.610;2023-12-20T11:18:45;14.00;71.30
78184;DHT22;67442;44.570;18.610;2023-12-20T11:21:12;14.20;70.70
78184;DHT22;67442;44.570;18.610;2023-12-20T11:23:43;14.10;70.90
78184;DHT22;67442;44.570;18.610;2023-12-20T11:26:11;14.00;71.30
78184;DHT22;67442;44.570;18.610;2023-12-20T11:28:38;13.90;71.00
78184;DHT22;67442;44.570;18.610;2023-12-20T11:31:06;13.90;68.90
78184;DHT22;67442;44.570;18.610;2023-12-20T11:33:39;14.00;71.10
78184;DHT22;67442;44.570;18.610;2023-12-20T11:36:14;14.10;71.70
78184;DHT22;67442;44.570;18.610;2023-12-20T11:38:57;14.10;71.10
78184;DHT22;67442;44.570;18.610;2023-12-20T11:41:28;14.10;71.20
78184;DHT22;67442;44.570;18.610;2023-12-20T11:44:00;14.00;72.00
78184;DHT22;67442;44.570;18.610;2023-12-20T11:46:29;13.80;74.30
78184;DHT22;67442;44.570;18.610;2023-12-20T11:48:58;13.70;75.50
78184;DHT22;67442;44.570;18.610;2023-12-20T11:51:25;13.60;75.70
78184;DHT22;67442;44.570;18.610;2023-12-20T11:53:56;13.50;76.80
78184;DHT22;67442;44.570;18.610;2023-12-20T11:56:23;13.50;77.20
78184;DHT22;67442;44.570;18.610;2023-12-20T11:58:50;13.60;76.90
78184;DHT22;67442;44.570;18.610;2023-12-20T12:01:21;13.60;76.90
78184;DHT22;67442;44.570;18.610;2023-12-20T12:04:05;13.50;79.10
78184;DHT22;67442;44.570;18.610;2023-12-20T12:06:37;13.50;76.20
78184;DHT22;67442;44.570;18.610;2023-12-20T12:09:05;13.60;75.40
78184;DHT22;67442;44.570;18.610;2023-12-20T12:11:32;13.50;75.70
78184;DHT22;67442;44.570;18.610;2023-12-20T12:14:04;13.30;81.20
78184;DHT22;67442;44.570;18.610;2023-12-20T12:16:33;13.30;82.30
78184;DHT22;67442;44.570;18.610;2023-12-20T12:19:00;13.00;76.20
78184;DHT22;67442;44.570;18.610;2023-12-20T12:21:27;12.90;78.50
78184;DHT22;67442;44.570;18.610;2023-12-20T12:24:09;12.90;78.10
78184;DHT22;67442;44.570;18.610;2023-12-20T12:26:36;12.80;77.80
78184;DHT22;67442;44.570;18.610;2023-12-20T12:29:03;12.70;80.40
78184;DHT22;67442;44.570;18.610;2023-12-20T12:31:38;12.40;82.30
78184;DHT22;67442;44.570;18.610;2023-12-20T12:34:06;12.20;69.10
78184;DHT22;67442;44.570;18.610;2023-12-20T12:36:35;12.30;67.00
78184;DHT22;67442;44.570;18.610;2023-12-20T12:39:03;12.10;66.70
78184;DHT22;67442;44.570;18.610;2023-12-20T12:41:31;12.00;69.00
78184;DHT22;67442;44.570;18.610;2023-12-20T12:43:58;11.90;70.30
78184;DHT22;67442;44.570;18.610;2023-12-20T12:46:26;11.90;70.50
78184;DHT22;67442;44.570;18.610;2023-12-20T12:48:59;11.70;71.70
78184;DHT22;67442;44.570;18.610;2023-12-20T12:51:30;11.50;73.00
78184;DHT22;67442;44.570;18.610;2023-12-20T12:53:58;11.60;74.40
78184;DHT22;67442;44.570;18.610;2023-12-20T12:56:29;11.50;75.20
78184;DHT22;67442;44.570;18.610;2023-12-20T12:58:57;11.50;75.90
78184;DHT22;67442;44.570;18.610;2023-12-20T13:01:24;11.50;75.30
78184;DHT22;67442;44.570;18.610;2023-12-20T13:03:52;11.50;76.30
78184;DHT22;67442;44.570;18.610;2023-12-20T13:06:20;11.50;75.50
78184;DHT22;67442;44.570;18.610;2023-12-20T13:08:48;11.50;76.80
78184;DHT22;67442;44.570;18.610;2023-12-20T13:11:14;11.60;75.50
78184;DHT22;67442;44.570;18.610;2023-12-20T13:13:46;11.70;74.30
78184;DHT22;67442;44.570;18.610;2023-12-20T13:16:17;11.80;74.40
78184;DHT22;67442;44.570;18.610;2023-12-20T13:18:48;11.80;74.00
78184;DHT22;67442;44.570;18.610;2023-12-20T13:21:21;11.80;74.90
78184;DHT22;67442;44.570;18.610;2023-12-20T13:23:49;11.80;73.50
78184;DHT22;67442;44.570;18.610;2023-12-20T13:26:38;11.80;75.70
78184;DHT22;67442;44.570;18.610;2023-12-20T13:29:09;11.70;73.00
78184;DHT22;67442;44.570;18.610;2023-12-20T13:31:44;11.90;72.60
78184;DHT22;67442;44.570;18.610;2023-12-20T13:34:11;11.90;72.20
78184;DHT22;67442;44.570;18.610;2023-12-20T13:36:40;11.80;71.50
78184;DHT22;67442;44.570;18.610;2023-12-20T13:39:08;11.60;70.60
78184;DHT22;67442;44.570;18.610;2023-12-20T13:41:38;11.60;69.90
78184;DHT22;67442;44.570;18.610;2023-12-20T13:44:05;11.60;70.60
78184;DHT22;67442;44.570;18.610;2023-12-20T13:46:33;11.50;68.80
78184;DHT22;67442;44.570;18.610;2023-12-20T13:49:01;11.50;67.40
78184;DHT22;67442;44.570;18.610;2023-12-20T13:51:32;11.40;68.80
78184;DHT22;67442;44.570;18.610;2023-12-20T13:53:59;11.30;68.90
78184;DHT22;67442;44.570;18.610;2023-12-20T13:56:30;11.40;68.60
78184;DHT22;67442;44.570;18.610;2023-12-20T13:58:59;11.30;69.10
78184;DHT22;67442;44.570;18.610;2023-12-20T14:01:27;11.30;66.30
78184;DHT22;67442;44.570;18.610;2023-12-20T14:03:55;11.40;67.60
78184;DHT22;67442;44.570;18.610;2023-12-20T14:06:22;11.40;65.80
78184;DHT22;67442;44.570;18.610;2023-12-20T14:08:50;11.40;66.40
78184;DHT22;67442;44.570;18.610;2023-12-20T14:11:18;11.30;67.50
78184;DHT22;67442;44.570;18.610;2023-12-20T14:13:45;11.20;66.70
78184;DHT22;67442;44.570;18.610;2023-12-20T14:16:13;11.10;65.40
78184;DHT22;67442;44.570;18.610;2023-12-20T14:18:42;11.10;67.50
78184;DHT22;67442;44.570;18.610;2023-12-20T14:21:09;11.10;66.50
78184;DHT22;67442;44.570;18.610;2023-12-20T14:23:37;11.20;65.40
78184;DHT22;67442;44.570;18.610;2023-12-20T14:26:08;11.10;67.60
78184;DHT22;67442;44.570;18.610;2023-12-20T14:28:43;11.10;70.90
78184;DHT22;67442;44.570;18.610;2023-12-20T14:31:11;10.90;68.30
78184;DHT22;67442;44.570;18.610;2023-12-20T14:33:39;10.90;67.50
78184;DHT22;67442;44.570;18.610;2023-12-20T14:36:08;10.80;68.40
78184;DHT22;67442;44.570;18.610;2023-12-20T14:38:35;10.80;68.20
78184;DHT22;67442;44.570;18.610;2023-12-20T14:41:07;10.80;69.30
78184;DHT22;67442;44.570;18.610;2023-12-20T14:43:35;10.70;67.80
78184;DHT22;67442;44.570;18.610;2023-12-20T14:46:06;10.50;69.00
78184;DHT22;67442;44.570;18.610;2023-12-20T14:48:37;10.50;69.60
78184;DHT22;67442;44.570;18.610;2023-12-20T14:51:09;10.50;70.40
78184;DHT22;67442;44.570;18.610;2023-12-20T14:53:38;10.30;72.40
78184;DHT22;67442;44.570;18.610;2023-12-20T14:56:06;10.20;73.50
78184;DHT22;67442;44.570;18.610;2023-12-20T14:58:34;10.10;75.00
78184;DHT22;67442;44.570;18.610;2023-12-20T15:01:02;9.90;76.80
78184;DHT22;67442;44.570;18.610;2023-12-20T15:03:30;9.70;78.70
78184;DHT22;67442;44.570;18.610;2023-12-20T15:05:57;9.50;77.40
78184;DHT22;67442;44.570;18.610;2023-12-20T15:08:26;9.40;79.20
78184;DHT22;67442;44.570;18.610;2023-12-20T15:10:53;9.40;78.90
78184;DHT22;67442;44.570;18.610;2023-12-20T15:13:21;9.30;81.80
78184;DHT22;67442;44.570;18.610;2023-12-20T15:15:49;9.20;85.20
78184;DHT22;67442;44.570;18.610;2023-12-20T15:18:20;9.10;87.80
78184;DHT22;67442;44.570;18.610;2023-12-20T15:20:51;8.90;88.60
78184;DHT22;67442;44.570;18.610;2023-12-20T15:23:18;8.70;89.40
78184;DHT22;67442;44.570;18.610;2023-12-20T15:25:54;8.40;90.40
78184;DHT22;67442;44.570;18.610;2023-12-20T15:28:22;7.90;92.50
78184;DHT22;67442;44.570;18.610;2023-12-20T15:30:50;7.60;94.00
78184;DHT22;67442;44.570;18.610;2023-12-20T15:33:17;7.60;94.20
78184;DHT22;67442;44.570;18.610;2023-12-20T15:35:49;7.50;94.60